ダラス/フォートワース の空港の天気 - METARとTAF

ダラス・フォートワース国際空港 ( KDFW / DFW ) - アメリカ テキサス州ダラス & フォートワース
飛行場実況気象(Metar)
観測時間04/21 11:53 CDT (04/21 16:53 UTC)
風向・風速南南東 10m/s
視程10km以上
天気現象
少しの雲 雲底高度 7620m
気温23.3℃
湿度56%
気圧1013.6hPa
METARKDFW 211653Z 16019KT 10SM FEW250 23/14 A2995 RMK AO2 SLP136 T02330139
過去の天気等 Google飛行場航空写真 Wunderground天気予報

過去48時間のMETAR

飛行場予報(TAF)
発表時間: 4/21 10:04 CDT (4/21 15:04 UTC)
予報対象時間: 21日10時 CDT ~ 22日13時 CDT
風向・風速南 9m/s 瞬間風速 14m/s
視程10km以上
少しの雲 雲底高度 7620m
21日20時 CDT から
風向・風速南 8m/s
視程10km以上
全天の8割程度の雲 雲底高度 7620m
22日5時 CDT から
風向・風速南 9m/s
視程10km以上
全天の8割程度の雲 雲底高度 670m
KDFW 211504Z 2115/2218 19018G28KT P6SM FEW250
FM220100 18016KT P6SM BKN250
FM221000 18018KT P6SM BKN022